createdAt,value
2017-09-21T03:30:31.093Z,14.70
2017-09-21T03:32:59.445Z,14.77
2017-09-21T03:35:27.026Z,15.73
2017-09-21T03:37:55.402Z,14.77
2017-09-21T03:40:23.989Z,15.77
2017-09-21T03:42:52.341Z,17.75
2017-09-21T03:45:19.923Z,15.50
2017-09-21T03:47:48.294Z,16.33
2017-09-21T03:50:15.877Z,15.52
2017-09-21T03:52:43.462Z,15.55
2017-09-21T03:55:11.066Z,13.23
2017-09-21T03:57:38.649Z,14.65
2017-09-21T04:00:07.051Z,12.82
2017-09-21T04:02:34.634Z,15.57
2017-09-21T04:05:02.215Z,14.48
2017-09-21T04:07:29.848Z,14.23
2017-09-21T04:09:57.451Z,16.00
2017-09-21T04:12:25.802Z,14.98
2017-09-21T04:14:53.409Z,13.70
2017-09-21T04:17:20.998Z,14.20
2017-09-21T04:19:48.818Z,14.48
2017-09-21T04:22:17.169Z,14.95
2017-09-21T04:24:44.761Z,13.95
2017-09-21T04:27:12.370Z,15.23
2017-09-21T04:29:39.958Z,14.38
2017-09-21T04:32:08.549Z,15.82
2017-09-21T04:34:36.896Z,15.38
2017-09-21T04:37:04.482Z,13.15
2017-09-21T04:39:32.870Z,13.68
2017-09-21T04:42:01.214Z,14.15
2017-09-21T04:44:28.794Z,14.05
2017-09-21T04:46:57.374Z,13.65
2017-09-21T04:49:25.722Z,14.27
2017-09-21T04:51:53.301Z,14.63
2017-09-21T04:54:20.906Z,14.55
2017-09-21T04:56:48.486Z,15.18
2017-09-21T04:59:16.113Z,15.60
2017-09-21T05:01:43.695Z,15.32
2017-09-21T05:04:11.305Z,14.38
2017-09-21T05:06:39.658Z,14.15
2017-09-21T05:09:07.238Z,13.85
2017-09-21T05:11:35.606Z,14.15
2017-09-21T05:14:03.182Z,12.13
2017-09-21T05:16:31.554Z,14.80
2017-09-21T05:18:59.952Z,13.65
2017-09-21T05:21:27.530Z,14.05
2017-09-21T05:23:55.110Z,10.20
2017-09-21T05:26:22.905Z,12.07
2017-09-21T05:28:50.486Z,9.45
2017-09-21T05:31:18.065Z,9.05
2017-09-21T05:33:45.689Z,10.38
2017-09-21T05:36:14.037Z,9.85
2017-09-21T05:38:41.626Z,10.75
2017-09-21T05:41:10.189Z,10.85
2017-09-21T05:43:37.774Z,9.27
2017-09-21T05:46:06.118Z,8.05
2017-09-21T05:48:33.822Z,9.20
2017-09-21T05:51:01.431Z,8.63
2017-09-21T05:53:29.021Z,10.23
2017-09-21T05:55:56.637Z,8.77
2017-09-21T05:58:24.534Z,10.00
2017-09-21T06:00:52.917Z,10.38
2017-09-21T06:03:21.273Z,10.80
2017-09-21T06:05:48.862Z,9.65
2017-09-21T06:08:16.497Z,12.43
2017-09-21T06:10:44.085Z,11.12
2017-09-21T06:13:12.442Z,11.30
2017-09-21T06:15:40.077Z,11.60
2017-09-21T06:18:07.670Z,11.95
2017-09-21T06:20:36.014Z,12.50
2017-09-21T06:23:03.624Z,15.02
2017-09-21T06:25:31.215Z,15.60
2017-09-21T06:27:59.110Z,14.82
2017-09-21T06:30:26.693Z,17.17
2017-09-21T06:32:55.049Z,18.27
2017-09-21T06:35:22.842Z,19.05
2017-09-21T06:37:51.194Z,19.58
2017-09-21T06:40:18.778Z,24.00
2017-09-21T06:42:46.638Z,22.10
2017-09-21T06:45:14.999Z,22.62
2017-09-21T06:47:42.590Z,19.77
2017-09-21T06:50:10.435Z,20.75
2017-09-21T06:52:38.030Z,20.42
2017-09-21T06:55:05.618Z,21.37
2017-09-21T06:57:33.239Z,20.50
2017-09-21T07:00:00.826Z,22.25
2017-09-21T07:02:29.181Z,22.02
2017-09-21T07:04:57.010Z,21.35
2017-09-21T07:07:25.370Z,20.88
2017-09-21T07:09:52.954Z,21.37
2017-09-21T07:12:21.358Z,20.73
2017-09-21T07:14:48.941Z,20.10
2017-09-21T07:17:17.298Z,20.77
2017-09-21T07:19:44.910Z,21.67
2017-09-21T07:22:13.261Z,22.15
2017-09-21T07:24:41.010Z,21.10
2017-09-21T07:27:09.557Z,19.92
2017-09-21T07:29:37.151Z,21.02
2017-09-21T07:32:04.746Z,18.67
2017-09-21T07:34:33.126Z,19.92
2017-09-21T07:37:01.473Z,20.23
2017-09-21T07:39:29.082Z,19.90
2017-09-21T07:41:56.685Z,21.60
2017-09-21T07:44:24.318Z,21.17
2017-09-21T07:46:51.906Z,21.77
2017-09-21T07:49:19.490Z,22.15
2017-09-21T07:51:47.097Z,22.83
2017-09-21T07:54:14.681Z,20.95
2017-09-21T07:56:42.330Z,22.58
2017-09-21T07:59:09.922Z,22.37
2017-09-21T08:01:37.516Z,23.48
2017-09-21T08:04:05.150Z,21.50
2017-09-21T08:06:33.510Z,22.30
2017-09-21T08:09:01.101Z,21.23
2017-09-21T08:11:29.502Z,22.42
2017-09-21T08:13:57.090Z,23.23
2017-09-21T08:16:24.678Z,23.50
2017-09-21T08:18:53.057Z,24.45
2017-09-21T08:21:20.647Z,24.87
2017-09-21T08:23:48.257Z,23.48
2017-09-21T08:26:15.851Z,23.20
2017-09-21T08:28:44.201Z,23.42
2017-09-21T08:31:11.809Z,26.30
2017-09-21T08:33:39.399Z,25.70
2017-09-21T08:36:06.994Z,26.37
2017-09-21T08:38:35.390Z,23.55
2017-09-21T08:41:02.990Z,23.80
2017-09-21T08:43:30.578Z,26.02
2017-09-21T08:45:58.218Z,24.95
2017-09-21T08:48:25.800Z,24.87
2017-09-21T08:50:54.548Z,25.20
2017-09-21T08:53:22.419Z,26.58
2017-09-21T08:55:50.009Z,25.65
2017-09-21T08:58:17.605Z,26.85
2017-09-21T09:00:45.222Z,27.98
2017-09-21T09:03:12.821Z,25.48
2017-09-21T09:05:40.726Z,26.48
2017-09-21T09:08:08.319Z,27.62
2017-09-21T09:10:36.677Z,28.00
2017-09-21T09:13:04.291Z,27.80
2017-09-21T09:15:31.881Z,27.25
2017-09-21T09:17:59.475Z,27.08
2017-09-21T09:20:27.862Z,27.75
2017-09-21T09:22:55.463Z,28.25
2017-09-21T09:25:23.059Z,30.85
2017-09-21T09:27:50.675Z,31.40
2017-09-21T09:30:18.302Z,31.25
2017-09-21T09:32:45.902Z,32.30
2017-09-21T09:35:13.518Z,34.35
2017-09-21T09:37:41.110Z,32.87
2017-09-21T09:40:08.734Z,33.33
2017-09-21T09:42:36.329Z,31.73
2017-09-21T09:45:03.926Z,36.97
2017-09-21T09:47:31.818Z,34.17
2017-09-21T09:50:00.174Z,34.35
2017-09-21T09:52:27.773Z,35.15
2017-09-21T09:54:58.188Z,34.78
2017-09-21T09:57:26.729Z,34.35
2017-09-21T09:59:54.317Z,34.45
2017-09-21T10:02:22.718Z,34.08
2017-09-21T10:04:50.305Z,29.07
2017-09-21T10:07:17.897Z,30.93
2017-09-21T10:09:46.466Z,30.00
2017-09-21T10:12:14.063Z,32.00
2017-09-21T10:14:41.651Z,31.07
2017-09-21T10:17:09.287Z,29.27
2017-09-21T10:19:36.878Z,32.63
2017-09-21T10:22:04.466Z,31.07
2017-09-21T10:24:32.100Z,31.10
2017-09-21T10:26:59.688Z,28.97
2017-09-21T10:29:27.278Z,30.60
2017-09-21T10:31:54.889Z,31.97
2017-09-21T10:34:22.523Z,32.57
2017-09-21T10:36:50.158Z,36.27
2017-09-21T10:39:17.779Z,34.83
2017-09-21T10:41:45.421Z,32.73
2017-09-21T10:44:13.079Z,33.40
2017-09-21T10:46:40.718Z,32.37
2017-09-21T10:49:08.362Z,31.30
2017-09-21T10:51:36.566Z,32.43
2017-09-21T10:54:04.482Z,31.40
2017-09-21T10:56:32.933Z,31.73
2017-09-21T10:59:00.579Z,29.43
2017-09-21T11:01:28.217Z,26.90
2017-09-21T11:03:55.805Z,27.90
2017-09-21T11:06:23.490Z,25.80
2017-09-21T11:08:51.078Z,26.23
2017-09-21T11:11:18.669Z,26.07
2017-09-21T11:13:46.568Z,26.73
2017-09-21T11:16:14.206Z,23.97
2017-09-21T11:18:42.573Z,27.80
2017-09-21T11:21:10.282Z,26.60
2017-09-21T11:23:38.885Z,25.43
2017-09-21T11:26:06.476Z,26.50
2017-09-21T11:28:34.134Z,24.77
2017-09-21T11:31:01.729Z,25.57
2017-09-21T11:33:29.322Z,28.80
2017-09-21T11:35:57.165Z,26.13
2017-09-21T11:38:25.519Z,25.67
2017-09-21T11:40:53.106Z,27.73
2017-09-21T11:43:21.690Z,25.80
2017-09-21T11:45:50.042Z,24.07
2017-09-21T11:48:17.625Z,24.80
2017-09-21T11:50:46.206Z,24.33
2017-09-21T11:53:14.561Z,28.63
2017-09-21T11:55:42.153Z,28.87
2017-09-21T11:58:09.809Z,29.90
2017-09-21T12:00:37.394Z,29.03
2017-09-21T12:03:04.986Z,26.80
2017-09-21T12:05:32.598Z,28.23
2017-09-21T12:08:00.181Z,26.93
2017-09-21T12:10:27.770Z,26.70
2017-09-21T12:12:55.550Z,27.20
2017-09-21T12:15:23.910Z,25.17
2017-09-21T12:17:51.496Z,25.37
2017-09-21T12:20:19.978Z,25.20
2017-09-21T12:22:48.334Z,22.63
2017-09-21T12:25:15.922Z,24.13
2017-09-21T12:27:43.780Z,19.37
2017-09-21T12:30:12.130Z,19.60
2017-09-21T12:32:39.723Z,21.27
2017-09-21T12:35:07.339Z,20.33
2017-09-21T12:37:34.926Z,20.43
2017-09-21T12:40:03.294Z,21.10
2017-09-21T12:42:31.834Z,18.63
2017-09-21T12:44:59.426Z,19.17
2017-09-21T12:47:27.019Z,16.80
2017-09-21T12:49:54.654Z,17.50
2017-09-21T12:52:23.006Z,19.53
2017-09-21T12:54:50.590Z,16.70
2017-09-21T12:57:19.182Z,15.07
2017-09-21T12:59:47.538Z,15.73
2017-09-21T13:02:15.121Z,15.13
2017-09-21T13:04:43.518Z,15.63
2017-09-21T13:07:11.105Z,14.33
2017-09-21T13:09:38.693Z,14.10
2017-09-21T13:12:06.324Z,15.50
2017-09-21T13:14:33.920Z,13.50
2017-09-21T13:17:02.278Z,14.60
2017-09-21T13:19:29.918Z,20.20
2017-09-21T13:21:57.506Z,14.43
2017-09-21T13:24:25.103Z,11.77
2017-09-21T13:29:30.206Z,12.20
2017-09-21T13:31:57.838Z,12.90
2017-09-21T13:34:25.431Z,10.57
2017-09-21T13:36:54.623Z,10.27
2017-09-21T13:39:22.514Z,10.80
2017-09-21T13:41:50.866Z,12.30
2017-09-21T13:44:18.454Z,11.40
2017-09-21T13:46:46.838Z,10.27
2017-09-21T13:49:14.693Z,10.40
2017-09-21T13:51:43.054Z,12.10
2017-09-21T13:54:10.642Z,10.00
2017-09-21T13:56:38.253Z,10.97
2017-09-21T13:59:05.838Z,11.30
2017-09-21T14:01:34.430Z,12.53
2017-09-21T14:04:02.782Z,10.37
2017-09-21T14:06:30.370Z,11.10
2017-09-21T14:08:58.770Z,11.77
2017-09-21T14:11:26.353Z,10.17
2017-09-21T14:13:53.934Z,9.90
2017-09-21T14:16:21.566Z,10.60
2017-09-21T14:18:49.923Z,9.40
2017-09-21T14:21:17.510Z,9.40
2017-09-21T14:23:45.117Z,9.47
2017-09-21T14:26:13.466Z,9.93
2017-09-21T14:28:41.095Z,10.07
2017-09-21T14:31:08.689Z,10.77
2017-09-21T14:33:36.278Z,11.20
2017-09-21T14:36:04.066Z,11.10
2017-09-21T14:38:31.649Z,10.03
2017-09-21T14:40:59.446Z,9.73
2017-09-21T14:43:27.831Z,10.50
2017-09-21T14:45:56.238Z,9.63
2017-09-21T14:48:23.822Z,9.80
2017-09-21T14:50:51.414Z,9.90
2017-09-21T14:53:19.194Z,9.67
2017-09-21T14:55:48.448Z,9.93
2017-09-21T14:58:16.125Z,10.43
2017-09-21T15:00:43.737Z,11.07
2017-09-21T15:03:11.324Z,10.53
2017-09-21T15:05:38.954Z,10.83
2017-09-21T15:08:06.538Z,9.87
2017-09-21T15:10:34.125Z,9.80
2017-09-21T15:13:01.930Z,11.23
2017-09-21T15:15:29.510Z,9.77
2017-09-21T15:17:57.097Z,9.10
2017-09-21T15:20:24.711Z,9.77
2017-09-21T15:22:52.303Z,9.17
2017-09-21T15:25:19.937Z,10.20
2017-09-21T15:27:47.521Z,10.30
2017-09-21T15:30:15.314Z,7.90
2017-09-21T15:32:42.980Z,13.67
2017-09-21T15:35:11.338Z,10.80
2017-09-21T15:37:38.917Z,8.90
2017-09-21T15:40:07.350Z,8.50
2017-09-21T15:42:34.933Z,8.90
2017-09-21T15:45:02.518Z,8.20
2017-09-21T15:47:31.198Z,8.47
2017-09-21T15:49:59.558Z,8.30
2017-09-21T15:52:27.149Z,10.50
2017-09-21T15:54:54.814Z,10.40
2017-09-21T15:57:22.509Z,9.33
2017-09-21T15:59:50.214Z,8.90
2017-09-21T16:02:21.045Z,8.37
2017-09-21T16:04:48.817Z,8.53
2017-09-21T16:07:17.170Z,9.53
2017-09-21T16:09:44.767Z,9.97
2017-09-21T16:12:12.375Z,9.10
2017-09-21T16:14:39.991Z,8.90
2017-09-21T16:17:07.837Z,9.53
2017-09-21T16:19:36.193Z,10.33
2017-09-21T16:22:03.782Z,10.33
2017-09-21T16:24:31.638Z,10.17
2017-09-21T16:26:59.989Z,9.17
2017-09-21T16:29:27.573Z,10.17
2017-09-21T16:31:55.973Z,8.30
2017-09-21T16:34:23.558Z,8.67
2017-09-21T16:36:51.374Z,8.70
2017-09-21T16:39:19.758Z,8.43
2017-09-21T16:41:48.142Z,7.90
2017-09-21T16:44:15.758Z,8.37
2017-09-21T16:46:43.339Z,7.30
2017-09-21T16:49:11.685Z,7.83
2017-09-21T16:51:39.309Z,7.43
2017-09-21T16:54:06.886Z,8.13
2017-09-21T16:56:34.462Z,7.73
2017-09-21T16:59:02.062Z,7.23
2017-09-21T17:01:30.405Z,7.40
2017-09-21T17:03:57.992Z,10.10
2017-09-21T17:06:26.361Z,14.63
2017-09-21T17:08:54.710Z,7.87
2017-09-21T17:11:22.613Z,7.93
2017-09-21T17:13:50.978Z,8.57
2017-09-21T17:16:18.568Z,8.03
2017-09-21T17:18:46.202Z,7.10
2017-09-21T17:21:14.559Z,6.73
2017-09-21T17:23:42.145Z,7.13
2017-09-21T17:26:10.524Z,7.10
2017-09-21T17:28:39.083Z,6.63
2017-09-21T17:31:06.664Z,6.80
2017-09-21T17:33:35.014Z,7.00
2017-09-21T17:36:02.647Z,6.07
2017-09-21T17:38:30.993Z,6.30
2017-09-21T17:40:58.570Z,6.53
2017-09-21T17:43:26.180Z,4.97
2017-09-21T17:45:54.529Z,6.50
2017-09-21T17:48:22.109Z,6.50
2017-09-21T17:50:49.737Z,5.63
2017-09-21T17:53:17.334Z,33.63
2017-09-21T17:55:45.690Z,16.40
2017-09-21T17:58:13.320Z,27.75
2017-09-21T18:00:40.934Z,9.50
2017-09-21T18:03:09.286Z,7.30
2017-09-21T18:05:36.873Z,6.35
2017-09-21T18:08:05.258Z,7.43
2017-09-21T18:10:32.846Z,7.20
2017-09-21T18:13:00.445Z,6.50
2017-09-21T18:15:28.110Z,7.43
2017-09-21T18:17:56.289Z,7.03
2017-09-21T18:20:23.902Z,7.17
2017-09-21T18:22:51.492Z,7.90
2017-09-21T18:25:19.111Z,6.73
2017-09-21T18:27:46.698Z,6.97
2017-09-21T18:30:14.736Z,7.40
2017-09-21T18:32:43.210Z,7.20
2017-09-21T18:35:10.798Z,7.30
2017-09-21T18:37:38.382Z,7.73
2017-09-21T18:40:06.850Z,7.40
2017-09-21T18:42:34.426Z,7.50
2017-09-21T18:45:02.010Z,7.97
2017-09-21T18:47:30.403Z,7.77
2017-09-21T18:49:57.986Z,7.50
2017-09-21T18:52:25.570Z,8.50
2017-09-21T18:54:53.179Z,8.70
2017-09-21T18:57:20.790Z,7.23
2017-09-21T18:59:48.382Z,7.57
2017-09-21T19:02:16.738Z,8.47
2017-09-21T19:04:44.350Z,9.10
2017-09-21T19:07:11.942Z,8.37
2017-09-21T19:09:39.679Z,8.37
2017-09-21T19:12:07.271Z,8.67
2017-09-21T19:14:34.862Z,8.70
2017-09-21T19:17:03.280Z,9.00
2017-09-21T19:19:30.876Z,17.40
2017-09-21T19:21:58.461Z,16.43
2017-09-21T19:24:26.081Z,17.73
2017-09-21T19:26:53.666Z,12.87
2017-09-21T19:29:22.018Z,12.90
2017-09-21T19:31:49.669Z,12.50
2017-09-21T19:34:17.266Z,11.53
2017-09-21T19:36:45.618Z,12.73
2017-09-21T19:39:13.258Z,12.70
2017-09-21T19:41:40.850Z,13.40
2017-09-21T19:44:09.205Z,12.50
2017-09-21T19:46:36.846Z,13.30
2017-09-21T19:49:04.441Z,14.27
2017-09-21T19:51:32.030Z,12.27
2017-09-21T19:53:59.746Z,12.90
2017-09-21T19:56:27.350Z,11.02
2017-09-21T19:58:54.995Z,12.82
2017-09-21T20:01:22.619Z,13.70
2017-09-21T20:03:50.209Z,15.07
2017-09-21T20:06:18.565Z,12.40
2017-09-21T20:08:46.182Z,12.13
2017-09-21T20:11:13.769Z,9.90
2017-09-21T20:13:41.398Z,11.37
2017-09-21T20:16:08.982Z,11.73
2017-09-21T20:18:36.577Z,10.73
2017-09-21T20:21:04.978Z,12.52
2017-09-21T20:23:32.570Z,11.70
2017-09-21T20:26:00.155Z,11.20
2017-09-21T20:28:27.959Z,12.20
2017-09-21T20:30:55.552Z,19.43
2017-09-21T20:33:23.145Z,11.75
2017-09-21T20:35:50.769Z,11.20
2017-09-21T20:38:18.366Z,12.18
2017-09-21T20:40:45.949Z,12.77
2017-09-21T20:43:13.562Z,12.03
2017-09-21T20:45:41.158Z,12.00
2017-09-21T20:48:09.569Z,12.45
2017-09-21T20:50:37.161Z,12.53
2017-09-21T20:53:04.757Z,12.45
2017-09-21T20:55:33.337Z,12.10
2017-09-21T20:58:01.697Z,11.52
2017-09-21T21:00:30.058Z,12.70
2017-09-21T21:02:57.959Z,12.10
2017-09-21T21:05:26.313Z,10.77
2017-09-21T21:07:53.909Z,14.90
2017-09-21T21:10:21.554Z,12.30
2017-09-21T21:12:49.147Z,11.77
2017-09-21T21:15:16.742Z,12.98
2017-09-21T21:17:44.374Z,16.50
2017-09-21T21:20:11.970Z,16.20
2017-09-21T21:22:39.557Z,12.13
2017-09-21T21:25:07.189Z,12.00
2017-09-21T21:27:34.791Z,12.50
2017-09-21T21:30:02.386Z,11.67
2017-09-21T21:32:30.027Z,11.63
2017-09-21T21:34:57.878Z,10.27
2017-09-21T21:37:25.658Z,11.53
2017-09-21T21:39:53.473Z,17.02
2017-09-21T21:42:21.826Z,16.20
2017-09-21T21:44:49.419Z,14.00
2017-09-21T21:47:17.813Z,16.90
2017-09-21T21:49:45.406Z,15.33
2017-09-21T21:52:12.989Z,12.57
2017-09-21T21:54:40.642Z,12.70
2017-09-21T21:57:08.238Z,12.52
2017-09-21T21:59:35.830Z,12.70
2017-09-21T22:02:03.461Z,11.93
2017-09-21T22:04:31.053Z,12.60
2017-09-21T22:06:58.641Z,11.30
2017-09-21T22:09:26.257Z,17.52
2017-09-21T22:11:53.853Z,12.50
2017-09-21T22:14:21.486Z,11.67
2017-09-21T22:16:49.077Z,13.23
2017-09-21T22:19:16.662Z,11.80
2017-09-21T22:21:45.065Z,15.03
2017-09-21T22:24:12.658Z,12.70
2017-09-21T22:26:40.250Z,13.30
2017-09-21T22:29:08.629Z,13.17
